Kingston/Norman Manley International Airport

Airport
ICAO code: 
MKJP
IATA Code: 
KIN
Summary
ICAO Region: 
CARSAM
Territory: 
Location: 
Palisadoes,
Serving: 
Kingston
Elevation: 
10 ft
Coordinates: 
Aerial View: 
17° 56' 7.843" N, 76° 47' 13.182" W
Airport RE: 
Landing on Contaminated Runways
Metar
Observation
MKJP 042200Z 31012KT 9999 SCT020 SCT032 25/23 Q1013
Station
Kingston / Norman Manley
Date/Time
2021-12-04 22:00:00
Wind direction
310°
Wind speed
12 kts
Lowest cloud amount
scattered clouds
Temperature
25°C
Dew point
23°C
Humidity
88%
QNH
1013 hPa
Weather condition
n/a

Description

International airport serving Kingston, Jamaica.

Climatology

Tropical Savanna climate (Köppen climate classification Aw) - monthly mean temperatures above 18°C, and a pronounced dry season. A Tropical Savanna climate has more pronounced dry seasons than a Tropical Monsoon climate.

Jamaica is vulnerable to Hurricanes from July to October.

Runways

Designator Length Width Surface Rops
12/30 2713 46 ASP Yes/Yes
Airport map: 
Aerial View: 

Accidents and Serious Incidents at or in the vicinity of MKJP

SKYbrary Partners:

Safety knowledge contributed by: